sensor_id;sensor_type;location;lat;lon;timestamp;pressure;altitude;pressure_sealevel;temperature;humidity
62524;BME280;53689;56.878;60.672;2023-07-31T00:00:41;97604.47;;;26.40;40.26
62524;BME280;53689;56.878;60.672;2023-07-31T00:03:10;97610.47;;;26.42;40.35
62524;BME280;53689;56.878;60.672;2023-07-31T00:05:37;97610.72;;;26.12;40.87
62524;BME280;53689;56.878;60.672;2023-07-31T00:08:05;97611.63;;;26.17;40.14
62524;BME280;53689;56.878;60.672;2023-07-31T00:10:33;97610.69;;;26.24;40.30
62524;BME280;53689;56.878;60.672;2023-07-31T00:13:00;97609.97;;;26.28;40.32
62524;BME280;53689;56.878;60.672;2023-07-31T00:15:28;97608.63;;;26.14;40.16
62524;BME280;53689;56.878;60.672;2023-07-31T00:17:56;97614.50;;;26.11;40.65
62524;BME280;53689;56.878;60.672;2023-07-31T00:20:25;97613.91;;;26.21;40.39
62524;BME280;53689;56.878;60.672;2023-07-31T00:22:53;97606.13;;;26.24;40.90
62524;BME280;53689;56.878;60.672;2023-07-31T00:25:20;97615.63;;;26.27;40.24
62524;BME280;53689;56.878;60.672;2023-07-31T00:27:48;97618.03;;;26.23;40.63
62524;BME280;53689;56.878;60.672;2023-07-31T00:30:16;97618.22;;;26.34;40.51
62524;BME280;53689;56.878;60.672;2023-07-31T00:32:43;97620.84;;;26.16;40.35
62524;BME280;53689;56.878;60.672;2023-07-31T00:35:11;97618.41;;;26.15;40.24
62524;BME280;53689;56.878;60.672;2023-07-31T00:37:40;97621.31;;;26.25;40.36
62524;BME280;53689;56.878;60.672;2023-07-31T00:40:08;97625.91;;;26.25;40.04
62524;BME280;53689;56.878;60.672;2023-07-31T00:42:36;97621.66;;;26.29;40.88
62524;BME280;53689;56.878;60.672;2023-07-31T00:45:05;97628.47;;;26.31;40.91
62524;BME280;53689;56.878;60.672;2023-07-31T00:47:32;97627.34;;;26.15;40.97
62524;BME280;53689;56.878;60.672;2023-07-31T00:50:00;97630.13;;;26.33;40.61
62524;BME280;53689;56.878;60.672;2023-07-31T00:52:28;97622.75;;;26.16;41.23
62524;BME280;53689;56.878;60.672;2023-07-31T00:54:57;97621.09;;;26.15;41.39
62524;BME280;53689;56.878;60.672;2023-07-31T00:57:25;97619.78;;;26.17;41.13
62524;BME280;53689;56.878;60.672;2023-07-31T00:59:52;97605.16;;;26.18;41.05
62524;BME280;53689;56.878;60.672;2023-07-31T01:02:20;97611.78;;;26.23;40.95
62524;BME280;53689;56.878;60.672;2023-07-31T01:04:48;97615.41;;;26.28;41.43
62524;BME280;53689;56.878;60.672;2023-07-31T01:07:19;97619.59;;;26.36;41.21
62524;BME280;53689;56.878;60.672;2023-07-31T01:09:55;97611.22;;;26.55;41.31
62524;BME280;53689;56.878;60.672;2023-07-31T01:12:27;97614.38;;;27.37;39.24
62524;BME280;53689;56.878;60.672;2023-07-31T01:15:03;97614.25;;;27.72;38.65
62524;BME280;53689;56.878;60.672;2023-07-31T01:17:31;97621.44;;;27.83;38.72
62524;BME280;53689;56.878;60.672;2023-07-31T01:20:02;97617.69;;;27.45;39.33
62524;BME280;53689;56.878;60.672;2023-07-31T01:22:48;97623.50;;;26.92;40.87
62524;BME280;53689;56.878;60.672;2023-07-31T01:25:33;97622.44;;;26.93;40.67
62524;BME280;53689;56.878;60.672;2023-07-31T01:28:07;97621.94;;;26.62;41.95
62524;BME280;53689;56.878;60.672;2023-07-31T01:30:39;97625.13;;;26.76;41.34
62524;BME280;53689;56.878;60.672;2023-07-31T01:33:09;97624.56;;;26.56;41.93
62524;BME280;53689;56.878;60.672;2023-07-31T01:35:37;97624.31;;;26.75;41.65
62524;BME280;53689;56.878;60.672;2023-07-31T01:38:05;97621.34;;;26.59;42.10
62524;BME280;53689;56.878;60.672;2023-07-31T01:40:33;97619.72;;;26.93;41.11
62524;BME280;53689;56.878;60.672;2023-07-31T01:43:01;97620.50;;;26.76;42.53
62524;BME280;53689;56.878;60.672;2023-07-31T01:45:30;97626.47;;;26.90;41.62
62524;BME280;53689;56.878;60.672;2023-07-31T01:47:57;97622.81;;;27.01;41.69
62524;BME280;53689;56.878;60.672;2023-07-31T01:50:25;97624.97;;;26.99;41.73
62524;BME280;53689;56.878;60.672;2023-07-31T01:52:52;97621.75;;;26.85;42.06
62524;BME280;53689;56.878;60.672;2023-07-31T01:55:20;97619.25;;;26.84;42.00
62524;BME280;53689;56.878;60.672;2023-07-31T01:57:47;97623.91;;;27.00;41.48
62524;BME280;53689;56.878;60.672;2023-07-31T02:00:15;97623.81;;;27.12;41.69
62524;BME280;53689;56.878;60.672;2023-07-31T02:02:45;97625.25;;;27.20;41.41
62524;BME280;53689;56.878;60.672;2023-07-31T02:05:12;97627.94;;;26.98;43.95
62524;BME280;53689;56.878;60.672;2023-07-31T02:07:40;97629.16;;;26.73;44.29
62524;BME280;53689;56.878;60.672;2023-07-31T02:10:08;97625.81;;;27.00;42.41
62524;BME280;53689;56.878;60.672;2023-07-31T02:12:36;97632.53;;;26.80;43.09
62524;BME280;53689;56.878;60.672;2023-07-31T02:15:05;97627.84;;;26.76;43.09
62524;BME280;53689;56.878;60.672;2023-07-31T02:17:32;97628.09;;;27.08;42.17
62524;BME280;53689;56.878;60.672;2023-07-31T02:20:02;97628.16;;;27.13;42.22
62524;BME280;53689;56.878;60.672;2023-07-31T02:22:29;97627.91;;;27.15;41.96
62524;BME280;53689;56.878;60.672;2023-07-31T02:24:57;97626.91;;;27.21;42.00
62524;BME280;53689;56.878;60.672;2023-07-31T02:27:25;97624.72;;;27.40;40.70
62524;BME280;53689;56.878;60.672;2023-07-31T02:29:52;97631.53;;;27.21;42.38
62524;BME280;53689;56.878;60.672;2023-07-31T02:32:20;97629.75;;;27.32;41.83
62524;BME280;53689;56.878;60.672;2023-07-31T02:34:48;97625.13;;;27.10;43.12
62524;BME280;53689;56.878;60.672;2023-07-31T02:37:18;97620.22;;;26.90;43.02
62524;BME280;53689;56.878;60.672;2023-07-31T02:39:46;97627.53;;;26.89;43.21
62524;BME280;53689;56.878;60.672;2023-07-31T02:42:14;97617.63;;;26.83;43.27
62524;BME280;53689;56.878;60.672;2023-07-31T02:44:42;97627.19;;;27.03;42.76
62524;BME280;53689;56.878;60.672;2023-07-31T02:47:09;97627.97;;;27.20;41.73
62524;BME280;53689;56.878;60.672;2023-07-31T02:49:37;97622.75;;;27.36;41.62
62524;BME280;53689;56.878;60.672;2023-07-31T02:52:05;97628.84;;;27.43;41.09
62524;BME280;53689;56.878;60.672;2023-07-31T02:54:34;97627.56;;;27.51;41.16
62524;BME280;53689;56.878;60.672;2023-07-31T02:57:02;97633.19;;;27.44;41.54
62524;BME280;53689;56.878;60.672;2023-07-31T02:59:30;97629.84;;;27.37;41.66
62524;BME280;53689;56.878;60.672;2023-07-31T03:01:57;97623.31;;;26.98;42.83
62524;BME280;53689;56.878;60.672;2023-07-31T03:04:25;97635.09;;;27.04;43.01
62524;BME280;53689;56.878;60.672;2023-07-31T03:06:53;97627.50;;;27.06;42.68
62524;BME280;53689;56.878;60.672;2023-07-31T03:09:20;97624.88;;;27.11;42.49
62524;BME280;53689;56.878;60.672;2023-07-31T03:11:50;97612.44;;;27.38;41.93
62524;BME280;53689;56.878;60.672;2023-07-31T03:14:18;97607.97;;;27.49;41.50
62524;BME280;53689;56.878;60.672;2023-07-31T03:16:46;97620.03;;;26.62;44.04
62524;BME280;53689;56.878;60.672;2023-07-31T03:19:14;97612.94;;;26.61;44.19
62524;BME280;53689;56.878;60.672;2023-07-31T03:21:41;97615.25;;;26.52;45.04
62524;BME280;53689;56.878;60.672;2023-07-31T03:24:09;97611.78;;;26.40;45.31
62524;BME280;53689;56.878;60.672;2023-07-31T03:26:36;97613.03;;;26.32;44.83
62524;BME280;53689;56.878;60.672;2023-07-31T03:29:07;97613.13;;;26.71;43.89
62524;BME280;53689;56.878;60.672;2023-07-31T03:31:34;97602.16;;;27.00;43.30
62524;BME280;53689;56.878;60.672;2023-07-31T03:34:03;97601.25;;;26.78;43.73
62524;BME280;53689;56.878;60.672;2023-07-31T03:36:30;97598.00;;;26.93;43.39
62524;BME280;53689;56.878;60.672;2023-07-31T03:38:58;97594.53;;;26.97;43.57
62524;BME280;53689;56.878;60.672;2023-07-31T03:41:26;97591.16;;;26.90;44.01
62524;BME280;53689;56.878;60.672;2023-07-31T03:43:54;97593.34;;;26.76;44.18
62524;BME280;53689;56.878;60.672;2023-07-31T03:46:23;97587.25;;;27.03;43.50
62524;BME280;53689;56.878;60.672;2023-07-31T03:48:51;97586.19;;;26.87;43.71
62524;BME280;53689;56.878;60.672;2023-07-31T03:51:18;97583.31;;;26.59;44.40
62524;BME280;53689;56.878;60.672;2023-07-31T03:53:46;97578.94;;;27.10;43.41
62524;BME280;53689;56.878;60.672;2023-07-31T03:56:14;97581.84;;;26.86;44.09
62524;BME280;53689;56.878;60.672;2023-07-31T03:58:41;97579.19;;;27.08;43.44
62524;BME280;53689;56.878;60.672;2023-07-31T04:01:09;97586.09;;;26.82;44.47
62524;BME280;53689;56.878;60.672;2023-07-31T04:03:38;97584.81;;;26.50;45.48
62524;BME280;53689;56.878;60.672;2023-07-31T04:06:06;97586.13;;;26.99;43.96
62524;BME280;53689;56.878;60.672;2023-07-31T04:08:34;97580.31;;;27.12;43.70
62524;BME280;53689;56.878;60.672;2023-07-31T04:11:02;97586.75;;;27.06;43.83
62524;BME280;53689;56.878;60.672;2023-07-31T04:13:29;97583.09;;;26.95;44.53
62524;BME280;53689;56.878;60.672;2023-07-31T04:15:57;97577.75;;;26.66;45.20
62524;BME280;53689;56.878;60.672;2023-07-31T04:18:25;97570.81;;;26.58;45.72
62524;BME280;53689;56.878;60.672;2023-07-31T04:20:54;97575.94;;;26.72;44.80
62524;BME280;53689;56.878;60.672;2023-07-31T04:23:21;97561.50;;;27.06;44.35
62524;BME280;53689;56.878;60.672;2023-07-31T04:25:49;97559.31;;;26.68;43.78
62524;BME280;53689;56.878;60.672;2023-07-31T04:28:17;97551.13;;;27.25;43.40
62524;BME280;53689;56.878;60.672;2023-07-31T04:30:45;97553.94;;;27.30;43.32
62524;BME280;53689;56.878;60.672;2023-07-31T04:33:15;97561.88;;;27.14;43.77
62524;BME280;53689;56.878;60.672;2023-07-31T04:35:49;97559.66;;;27.11;43.75
62524;BME280;53689;56.878;60.672;2023-07-31T04:38:19;97556.38;;;27.32;43.08
62524;BME280;53689;56.878;60.672;2023-07-31T04:40:47;97552.22;;;27.46;42.95
62524;BME280;53689;56.878;60.672;2023-07-31T04:43:15;97561.19;;;27.69;42.67
62524;BME280;53689;56.878;60.672;2023-07-31T04:45:46;97555.81;;;27.52;42.83
62524;BME280;53689;56.878;60.672;2023-07-31T04:48:13;97560.50;;;27.56;42.39
62524;BME280;53689;56.878;60.672;2023-07-31T04:50:42;97560.94;;;27.48;42.84
62524;BME280;53689;56.878;60.672;2023-07-31T04:53:09;97560.44;;;27.51;43.39
62524;BME280;53689;56.878;60.672;2023-07-31T04:55:39;97563.34;;;27.22;43.79
62524;BME280;53689;56.878;60.672;2023-07-31T04:58:07;97563.41;;;27.50;43.11
62524;BME280;53689;56.878;60.672;2023-07-31T05:00:35;97563.66;;;27.48;43.37
62524;BME280;53689;56.878;60.672;2023-07-31T05:03:03;97558.97;;;27.66;42.76
62524;BME280;53689;56.878;60.672;2023-07-31T05:05:30;97565.09;;;27.78;42.29
62524;BME280;53689;56.878;60.672;2023-07-31T05:07:58;97563.91;;;27.24;44.34
62524;BME280;53689;56.878;60.672;2023-07-31T05:10:26;97565.53;;;27.03;44.60
62524;BME280;53689;56.878;60.672;2023-07-31T05:12:55;97562.75;;;27.20;44.37
62524;BME280;53689;56.878;60.672;2023-07-31T05:15:22;97567.56;;;27.13;44.22
62524;BME280;53689;56.878;60.672;2023-07-31T05:17:50;97570.44;;;27.06;44.30
62524;BME280;53689;56.878;60.672;2023-07-31T05:20:17;97569.50;;;26.95;44.22
62524;BME280;53689;56.878;60.672;2023-07-31T05:22:45;97573.31;;;26.94;43.20
62524;BME280;53689;56.878;60.672;2023-07-31T05:25:13;97574.84;;;27.29;43.52
62524;BME280;53689;56.878;60.672;2023-07-31T05:27:41;97576.94;;;27.67;42.79
62524;BME280;53689;56.878;60.672;2023-07-31T05:30:10;97574.41;;;27.60;42.61
62524;BME280;53689;56.878;60.672;2023-07-31T05:32:38;97575.47;;;27.14;44.15
62524;BME280;53689;56.878;60.672;2023-07-31T05:35:06;97580.44;;;27.00;44.49
62524;BME280;53689;56.878;60.672;2023-07-31T05:37:33;97578.38;;;27.08;44.25
62524;BME280;53689;56.878;60.672;2023-07-31T05:40:02;97574.75;;;27.91;42.70
62524;BME280;53689;56.878;60.672;2023-07-31T05:42:30;97576.22;;;28.04;41.90
62524;BME280;53689;56.878;60.672;2023-07-31T05:44:57;97571.31;;;28.01;42.18
62524;BME280;53689;56.878;60.672;2023-07-31T05:47:27;97570.53;;;28.06;41.91
62524;BME280;53689;56.878;60.672;2023-07-31T05:49:54;97569.31;;;27.64;42.52
62524;BME280;53689;56.878;60.672;2023-07-31T05:52:22;97568.22;;;27.65;42.66
62524;BME280;53689;56.878;60.672;2023-07-31T05:54:50;97562.84;;;27.97;42.06
62524;BME280;53689;56.878;60.672;2023-07-31T05:57:18;97572.41;;;28.00;41.97
62524;BME280;53689;56.878;60.672;2023-07-31T05:59:45;97579.41;;;27.96;42.12
62524;BME280;53689;56.878;60.672;2023-07-31T06:02:13;97573.41;;;27.94;41.96
62524;BME280;53689;56.878;60.672;2023-07-31T06:04:42;97574.44;;;27.88;42.08
62524;BME280;53689;56.878;60.672;2023-07-31T06:07:10;97571.31;;;28.01;41.68
62524;BME280;53689;56.878;60.672;2023-07-31T06:09:38;97570.47;;;28.01;42.03
62524;BME280;53689;56.878;60.672;2023-07-31T06:12:06;97574.34;;;28.32;41.00
62524;BME280;53689;56.878;60.672;2023-07-31T06:14:34;97574.41;;;27.82;42.38
62524;BME280;53689;56.878;60.672;2023-07-31T06:17:01;97577.38;;;28.08;41.74
62524;BME280;53689;56.878;60.672;2023-07-31T06:19:29;97581.81;;;27.65;42.60
62524;BME280;53689;56.878;60.672;2023-07-31T06:21:58;97587.69;;;27.79;42.24
62524;BME280;53689;56.878;60.672;2023-07-31T06:24:25;97577.41;;;28.14;41.67
62524;BME280;53689;56.878;60.672;2023-07-31T06:26:53;97583.03;;;28.29;41.03
62524;BME280;53689;56.878;60.672;2023-07-31T06:29:21;97570.53;;;28.06;41.69
62524;BME280;53689;56.878;60.672;2023-07-31T06:31:48;97573.41;;;28.21;41.43
62524;BME280;53689;56.878;60.672;2023-07-31T06:34:16;97581.88;;;28.20;41.44
62524;BME280;53689;56.878;60.672;2023-07-31T06:36:44;97579.88;;;28.15;41.55
62524;BME280;53689;56.878;60.672;2023-07-31T06:39:13;97574.03;;;28.01;41.71
62524;BME280;53689;56.878;60.672;2023-07-31T06:41:41;97576.09;;;27.89;41.98
62524;BME280;53689;56.878;60.672;2023-07-31T06:44:10;97570.25;;;27.75;42.34
62524;BME280;53689;56.878;60.672;2023-07-31T06:46:38;97569.91;;;28.21;41.15
62524;BME280;53689;56.878;60.672;2023-07-31T06:49:06;97559.09;;;27.76;42.41
62524;BME280;53689;56.878;60.672;2023-07-31T06:51:33;97566.00;;;27.84;42.02
62524;BME280;53689;56.878;60.672;2023-07-31T06:54:01;97562.31;;;28.01;41.58
62524;BME280;53689;56.878;60.672;2023-07-31T06:56:30;97558.06;;;28.10;41.95
62524;BME280;53689;56.878;60.672;2023-07-31T06:58:58;97567.59;;;28.13;41.76
62524;BME280;53689;56.878;60.672;2023-07-31T07:01:25;97562.53;;;28.21;41.45
62524;BME280;53689;56.878;60.672;2023-07-31T07:03:53;97554.88;;;28.18;41.34
62524;BME280;53689;56.878;60.672;2023-07-31T07:06:22;97564.88;;;28.40;40.96
62524;BME280;53689;56.878;60.672;2023-07-31T07:08:50;97562.19;;;28.45;40.80
62524;BME280;53689;56.878;60.672;2023-07-31T07:11:18;97554.53;;;28.09;41.70
62524;BME280;53689;56.878;60.672;2023-07-31T07:13:47;97558.38;;;28.46;40.84
62524;BME280;53689;56.878;60.672;2023-07-31T07:16:14;97555.25;;;28.65;39.81
62524;BME280;53689;56.878;60.672;2023-07-31T07:18:43;97561.59;;;28.76;40.06
62524;BME280;53689;56.878;60.672;2023-07-31T07:21:29;97553.59;;;27.98;41.83
62524;BME280;53689;56.878;60.672;2023-07-31T07:23:56;97551.91;;;27.65;42.11
62524;BME280;53689;56.878;60.672;2023-07-31T07:26:24;97552.31;;;27.79;42.35
62524;BME280;53689;56.878;60.672;2023-07-31T07:28:53;97548.06;;;27.88;41.90
62524;BME280;53689;56.878;60.672;2023-07-31T07:31:20;97547.72;;;28.39;40.70
62524;BME280;53689;56.878;60.672;2023-07-31T07:33:48;97555.38;;;28.43;40.66
62524;BME280;53689;56.878;60.672;2023-07-31T07:36:16;97553.78;;;28.47;40.48
62524;BME280;53689;56.878;60.672;2023-07-31T07:38:44;97559.28;;;27.97;41.48
62524;BME280;53689;56.878;60.672;2023-07-31T07:41:11;97553.03;;;28.24;40.94
62524;BME280;53689;56.878;60.672;2023-07-31T07:43:39;97551.59;;;28.16;41.01
62524;BME280;53689;56.878;60.672;2023-07-31T07:46:08;97549.38;;;28.41;40.49
62524;BME280;53689;56.878;60.672;2023-07-31T07:48:36;97547.88;;;28.22;41.05
62524;BME280;53689;56.878;60.672;2023-07-31T07:51:03;97553.16;;;28.12;41.04
62524;BME280;53689;56.878;60.672;2023-07-31T07:53:31;97556.06;;;28.00;41.37
62524;BME280;53689;56.878;60.672;2023-07-31T07:55:58;97558.44;;;28.19;41.00
62524;BME280;53689;56.878;60.672;2023-07-31T07:58:26;97557.56;;;28.13;40.72
62524;BME280;53689;56.878;60.672;2023-07-31T08:00:53;97551.69;;;28.59;40.05
62524;BME280;53689;56.878;60.672;2023-07-31T08:03:23;97553.63;;;28.64;39.96
62524;BME280;53689;56.878;60.672;2023-07-31T08:05:50;97561.47;;;28.55;40.01
62524;BME280;53689;56.878;60.672;2023-07-31T08:08:18;97557.47;;;28.30;40.56
62524;BME280;53689;56.878;60.672;2023-07-31T08:10:45;97559.56;;;28.23;40.74
62524;BME280;53689;56.878;60.672;2023-07-31T08:13:13;97557.59;;;28.46;40.20
62524;BME280;53689;56.878;60.672;2023-07-31T08:15:41;97557.34;;;28.52;39.75
62524;BME280;53689;56.878;60.672;2023-07-31T08:18:09;97557.59;;;28.46;40.15
62524;BME280;53689;56.878;60.672;2023-07-31T08:20:38;97546.50;;;28.25;40.57
62524;BME280;53689;56.878;60.672;2023-07-31T08:23:06;97544.56;;;28.20;40.60
62524;BME280;53689;56.878;60.672;2023-07-31T08:25:34;97551.66;;;28.21;40.53
62524;BME280;53689;56.878;60.672;2023-07-31T08:28:02;97554.47;;;28.32;40.47
62524;BME280;53689;56.878;60.672;2023-07-31T08:30:30;97542.88;;;28.47;40.17
62524;BME280;53689;56.878;60.672;2023-07-31T08:32:57;97543.00;;;28.30;40.16
62524;BME280;53689;56.878;60.672;2023-07-31T08:35:26;97551.66;;;28.21;40.53
62524;BME280;53689;56.878;60.672;2023-07-31T08:37:55;97547.69;;;28.34;40.13
62524;BME280;53689;56.878;60.672;2023-07-31T08:40:23;97552.72;;;28.53;40.04
62524;BME280;53689;56.878;60.672;2023-07-31T08:42:53;97550.28;;;28.51;39.95
62524;BME280;53689;56.878;60.672;2023-07-31T08:45:22;97537.22;;;28.53;39.68
62524;BME280;53689;56.878;60.672;2023-07-31T08:47:51;97543.47;;;28.54;40.12
62524;BME280;53689;56.878;60.672;2023-07-31T08:50:20;97543.66;;;28.42;40.01
62524;BME280;53689;56.878;60.672;2023-07-31T08:52:49;97531.91;;;28.74;39.04
62524;BME280;53689;56.878;60.672;2023-07-31T08:55:18;97538.81;;;28.87;38.92
62524;BME280;53689;56.878;60.672;2023-07-31T08:57:46;97533.38;;;28.87;38.91
62524;BME280;53689;56.878;60.672;2023-07-31T09:00:15;97534.31;;;28.65;39.59
62524;BME280;53689;56.878;60.672;2023-07-31T09:02:46;97528.31;;;28.69;39.26
62524;BME280;53689;56.878;60.672;2023-07-31T09:05:16;97528.09;;;28.75;39.43
62524;BME280;53689;56.878;60.672;2023-07-31T09:07:45;97526.34;;;28.97;38.69
62524;BME280;53689;56.878;60.672;2023-07-31T09:10:14;97526.50;;;28.42;39.94
62524;BME280;53689;56.878;60.672;2023-07-31T09:12:43;97524.75;;;28.25;39.83
62524;BME280;53689;56.878;60.672;2023-07-31T09:15:12;97524.44;;;28.59;39.41
62524;BME280;53689;56.878;60.672;2023-07-31T09:18:01;97516.22;;;28.92;38.89
62524;BME280;53689;56.878;60.672;2023-07-31T09:20:29;97517.03;;;28.87;38.88
62524;BME280;53689;56.878;60.672;2023-07-31T09:23:05;97522.19;;;28.84;39.06
62524;BME280;53689;56.878;60.672;2023-07-31T09:25:33;97518.91;;;28.87;38.80
62524;BME280;53689;56.878;60.672;2023-07-31T09:28:04;97514.47;;;28.75;39.03
62524;BME280;53689;56.878;60.672;2023-07-31T09:30:44;97513.91;;;28.73;38.94
62524;BME280;53689;56.878;60.672;2023-07-31T09:33:12;97507.34;;;29.17;38.03
62524;BME280;53689;56.878;60.672;2023-07-31T09:35:40;97503.41;;;28.87;38.44
62524;BME280;53689;56.878;60.672;2023-07-31T09:38:10;97504.72;;;28.42;40.10
62524;BME280;53689;56.878;60.672;2023-07-31T09:40:42;97506.41;;;28.48;39.70
62524;BME280;53689;56.878;60.672;2023-07-31T09:43:13;97499.03;;;28.86;38.70
62524;BME280;53689;56.878;60.672;2023-07-31T09:45:42;97500.56;;;28.72;38.99
62524;BME280;53689;56.878;60.672;2023-07-31T09:48:11;97500.00;;;28.70;38.81
62524;BME280;53689;56.878;60.672;2023-07-31T09:50:41;97485.66;;;28.36;39.07
62524;BME280;53689;56.878;60.672;2023-07-31T09:53:09;97492.97;;;28.36;39.42
62524;BME280;53689;56.878;60.672;2023-07-31T09:55:37;97487.53;;;28.36;39.51
62524;BME280;53689;56.878;60.672;2023-07-31T09:58:06;97485.06;;;28.34;39.45
62524;BME280;53689;56.878;60.672;2023-07-31T10:00:36;97482.66;;;28.38;39.53
62524;BME280;53689;56.878;60.672;2023-07-31T10:03:05;97484.88;;;28.84;40.27
62524;BME280;53689;56.878;60.672;2023-07-31T10:05:35;97482.56;;;28.71;39.74
62524;BME280;53689;56.878;60.672;2023-07-31T10:08:03;97467.53;;;28.58;39.37
62524;BME280;53689;56.878;60.672;2023-07-31T10:10:31;97477.84;;;28.50;39.17
62524;BME280;53689;56.878;60.672;2023-07-31T10:13:00;97466.69;;;29.05;37.74
62524;BME280;53689;56.878;60.672;2023-07-31T10:15:28;97464.06;;;28.73;38.49
62524;BME280;53689;56.878;60.672;2023-07-31T10:17:59;97468.41;;;28.69;38.76
62524;BME280;53689;56.878;60.672;2023-07-31T10:20:28;97461.22;;;28.52;38.77
62524;BME280;53689;56.878;60.672;2023-07-31T10:22:56;97453.47;;;28.76;38.42
62524;BME280;53689;56.878;60.672;2023-07-31T10:25:26;97452.38;;;28.72;38.46
62524;BME280;53689;56.878;60.672;2023-07-31T10:27:54;97452.88;;;28.64;38.55
62524;BME280;53689;56.878;60.672;2023-07-31T10:30:26;97456.38;;;28.59;38.48
62524;BME280;53689;56.878;60.672;2023-07-31T10:32:54;97453.75;;;28.75;38.50
62524;BME280;53689;56.878;60.672;2023-07-31T10:35:24;97449.00;;;28.60;38.88
62524;BME280;53689;56.878;60.672;2023-07-31T10:37:52;97441.69;;;29.34;36.77
62524;BME280;53689;56.878;60.672;2023-07-31T10:40:24;97445.75;;;29.16;37.66
62524;BME280;53689;56.878;60.672;2023-07-31T10:42:52;97444.44;;;29.29;37.24
62524;BME280;53689;56.878;60.672;2023-07-31T10:45:24;97440.59;;;29.35;37.06
62524;BME280;53689;56.878;60.672;2023-07-31T10:47:59;97446.53;;;29.06;37.68
62524;BME280;53689;56.878;60.672;2023-07-31T10:50:29;97449.00;;;29.08;37.55
62524;BME280;53689;56.878;60.672;2023-07-31T10:52:57;97441.38;;;29.20;36.78
62524;BME280;53689;56.878;60.672;2023-07-31T10:55:26;97432.72;;;29.34;36.82
62524;BME280;53689;56.878;60.672;2023-07-31T10:57:54;97426.13;;;29.19;37.06
62524;BME280;53689;56.878;60.672;2023-07-31T11:00:25;97433.81;;;29.43;36.88
62524;BME280;53689;56.878;60.672;2023-07-31T11:02:57;97432.16;;;29.27;37.12
62524;BME280;53689;56.878;60.672;2023-07-31T11:05:47;97422.91;;;29.38;36.29
62524;BME280;53689;56.878;60.672;2023-07-31T11:08:20;97422.34;;;29.26;36.89
62524;BME280;53689;56.878;60.672;2023-07-31T11:10:49;97415.72;;;29.01;37.55
62524;BME280;53689;56.878;60.672;2023-07-31T11:13:18;97420.56;;;28.83;37.97
62524;BME280;53689;56.878;60.672;2023-07-31T11:15:45;97415.75;;;29.11;37.54
62524;BME280;53689;56.878;60.672;2023-07-31T11:18:13;97409.19;;;28.97;37.84
62524;BME280;53689;56.878;60.672;2023-07-31T11:20:40;97416.56;;;29.01;37.36
62524;BME280;53689;56.878;60.672;2023-07-31T11:23:10;97410.78;;;28.87;37.79
62524;BME280;53689;56.878;60.672;2023-07-31T11:25:39;97412.13;;;28.85;37.77
62524;BME280;53689;56.878;60.672;2023-07-31T11:28:08;97414.63;;;28.97;37.72
62524;BME280;53689;56.878;60.672;2023-07-31T11:30:36;97411.19;;;29.43;36.73
62524;BME280;53689;56.878;60.672;2023-07-31T11:33:05;97408.22;;;29.49;36.45
62524;BME280;53689;56.878;60.672;2023-07-31T11:35:33;97406.59;;;29.64;36.19
62524;BME280;53689;56.878;60.672;2023-07-31T11:38:02;97407.16;;;29.51;36.33
62524;BME280;53689;56.878;60.672;2023-07-31T11:40:31;97411.50;;;29.57;36.19
62524;BME280;53689;56.878;60.672;2023-07-31T11:43:07;97409.06;;;29.55;36.56
62524;BME280;53689;56.878;60.672;2023-07-31T11:45:35;97406.03;;;29.46;36.00
62524;BME280;53689;56.878;60.672;2023-07-31T11:48:03;97403.28;;;29.36;36.65
62524;BME280;53689;56.878;60.672;2023-07-31T11:50:33;97402.75;;;29.49;36.15
62524;BME280;53689;56.878;60.672;2023-07-31T11:53:04;97406.63;;;29.80;35.86
62524;BME280;53689;56.878;60.672;2023-07-31T11:55:36;97406.63;;;29.80;35.99
62524;BME280;53689;56.878;60.672;2023-07-31T11:58:04;97403.06;;;29.69;36.15
62524;BME280;53689;56.878;60.672;2023-07-31T12:00:32;97404.44;;;29.71;35.54
62524;BME280;53689;56.878;60.672;2023-07-31T12:02:59;97401.97;;;29.70;36.29
62524;BME280;53689;56.878;60.672;2023-07-31T12:05:27;97401.97;;;29.75;36.14
62524;BME280;53689;56.878;60.672;2023-07-31T12:07:55;97398.97;;;29.82;35.46
62524;BME280;53689;56.878;60.672;2023-07-31T12:10:28;97403.03;;;30.00;35.27
62524;BME280;53689;56.878;60.672;2023-07-31T12:13:02;97401.16;;;29.64;36.10
62524;BME280;53689;56.878;60.672;2023-07-31T12:15:33;97385.34;;;29.51;36.49
62524;BME280;53689;56.878;60.672;2023-07-31T12:18:05;97398.41;;;29.54;36.27
62524;BME280;53689;56.878;60.672;2023-07-31T12:20:34;97392.69;;;29.60;36.59
62524;BME280;53689;56.878;60.672;2023-07-31T12:23:02;97393.22;;;29.52;36.40
62524;BME280;53689;56.878;60.672;2023-07-31T12:25:33;97387.53;;;29.80;35.92
62524;BME280;53689;56.878;60.672;2023-07-31T12:28:06;97390.25;;;29.80;35.92
62524;BME280;53689;56.878;60.672;2023-07-31T12:30:35;97392.13;;;29.89;36.25
62524;BME280;53689;56.878;60.672;2023-07-31T12:33:03;97389.16;;;29.81;36.00
62524;BME280;53689;56.878;60.672;2023-07-31T12:35:38;97394.06;;;29.79;36.01
62524;BME280;53689;56.878;60.672;2023-07-31T12:38:08;97394.00;;;29.27;36.93
62524;BME280;53689;56.878;60.672;2023-07-31T12:40:37;97398.09;;;29.40;36.95
62524;BME280;53689;56.878;60.672;2023-07-31T12:43:06;97396.22;;;30.02;35.60
62524;BME280;53689;56.878;60.672;2023-07-31T12:45:37;97398.56;;;29.05;37.86
62524;BME280;53689;56.878;60.672;2023-07-31T12:48:05;97397.47;;;29.06;37.65
62524;BME280;53689;56.878;60.672;2023-07-31T12:50:33;97393.91;;;29.01;38.18
62524;BME280;53689;56.878;60.672;2023-07-31T12:53:00;97394.00;;;29.21;37.52
62524;BME280;53689;56.878;60.672;2023-07-31T12:55:28;97397.78;;;29.20;37.51
62524;BME280;53689;56.878;60.672;2023-07-31T12:57:56;97398.09;;;29.29;37.61